Flight Track Log - Related Links

Times and Time Zones

All times are in EDT time to prevent confusion due to time zone crossing. See the AWE1821 flight status page for this flight to view local times or setup timezone preferences in your user account.

Time Position Orientation Groundspeed Altitude Reporting Facility
EDT Latitude Longitude Course Direction KTS MPH feet Rate Location/Type
Mon 07:07:34 AM 41.7350 -71.4192 246° West 155 178 600  Level Boston Center
Mon 07:08:41 AM 41.7450 -71.3522 79° East 200 230 2,200 1,865 Climbing Boston Center
Mon 07:10:00 AM 41.3762 -71.3056 164° South  Level FlightAware Approximate
Mon 07:10:02 AM 41.6739 -71.3283 166° South 232 267 5,200  Level Boston Center
Mon 07:11:00 AM 41.2906 -71.2746 166° South  Level FlightAware Approximate
Mon 07:11:02 AM 41.5903 -71.3131 172° South 263 303 8,700  Level Boston Center
Mon 07:12:00 AM 41.2046 -71.2460 166° South  Level FlightAware Approximate
Mon 07:12:02 AM 41.5194 -71.3033 174° South 288 331 10,300  Level Boston Center
Mon 07:13:00 AM 41.1435 -71.2863 246° West  Level FlightAware Approximate
Mon 07:13:02 AM 41.4131 -71.2886 174° South 333 383 12,800  Level Boston Center
Mon 07:14:02 AM 41.3231 -71.2736 173° South 357 411 15,300 2,500 Climbing Boston Center
Mon 07:15:02 AM 41.2086 -71.2703 179° South 368 423 17,800 2,150 Climbing Boston Center
Mon 07:16:02 AM 41.1322 -71.3653 223° Southwest 356 410 19,600 1,950 Climbing Boston Center
Mon 07:17:02 AM 41.0856 -71.5011 246° West 367 422 21,700 1,850 Climbing Boston Center
Mon 07:18:02 AM 41.0178 -71.6119 231° Southwest 387 445 23,300 1,600 Climbing Boston Center
Mon 07:19:02 AM 40.9539 -71.7447 238° Southwest 413 475 24,900 1,350 Climbing Boston Center
Mon 07:20:02 AM 40.8839 -71.8744 235° Southwest 426 490 26,000 550 Climbing Boston Center
Mon 07:21:02 AM 40.8033 -72.0014 230° Southwest 439 505 26,000  Level Boston Center
Mon 07:22:02 AM 40.7203 -72.1306 230° Southwest 452 520 26,000  Level Boston Center
Mon 07:23:02 AM 40.6478 -72.2706 236° Southwest 457 526 26,000  Level Boston Center
Mon 07:24:02 AM 40.5686 -72.4019 232° Southwest 462 532 26,000 -1,125 Level Boston Center
Mon 07:26:30 AM 40.3853 -72.7219 233° Southwest 463 533 22,100 -1,722 Descending New York Center
Mon 07:27:31 AM 40.3144 -72.8453 233° Southwest 444 511 20,000 -1,059 Descending New York Center
Mon 07:28:29 AM 40.2456 -72.9628 232° Southwest 429 494 20,000  Level New York Center
Mon 07:29:30 AM 40.1767 -73.0772 232° Southwest 418 481 20,000  Level New York Center
Mon 07:30:30 AM 40.1078 -73.1944 232° Southwest 412 474 20,000  Level New York Center
Mon 07:31:31 AM 40.0386 -73.3058 231° Southwest 412 474 20,000  Level New York Center
Mon 07:32:29 AM 39.9714 -73.4200 232° Southwest 412 474 20,000  Level New York Center
Mon 07:33:29 AM 39.9022 -73.5281 230° Southwest 406 467 20,000  Level New York Center
Mon 07:34:30 AM 39.8328 -73.6417 232° Southwest 406 467 20,000  Level New York Center
Mon 07:35:13 AM 39.7903 -73.7119 232° Southwest 404 465 20,000  Level Washington Center
Mon 07:36:14 AM 39.7233 -73.8192 231° Southwest 404 465 20,000 -1,041 Level Washington Center
Mon 07:37:14 AM 39.6519 -73.9339 231° Southwest 404 465 17,900 -2,085 Descending Washington Center
Mon 07:38:12 AM 39.5825 -74.0433 231° Southwest 404 465 15,900 -1,966 Descending Washington Center
Mon 07:39:13 AM 39.5278 -74.1575 238° Southwest 399 459 14,000 -1,426 Descending Washington Center
Mon 07:40:14 AM 39.5250 -74.2839 268° West 353 406 13,000 -992 Descending Washington Center
Mon 07:41:14 AM 39.5283 -74.3997 272° West 347 399 12,000 -966 Descending Washington Center
Mon 07:42:12 AM 39.5314 -74.5072 272° West 324 373 11,100 -957 Descending Washington Center
Mon 07:44:22 AM 39.5333 -74.7500 271° West 298 343 9,000 -789 Descending Philadelphia TRACON
Mon 07:45:22 AM 39.5333 -74.8500 270° West 291 335 8,600 -450 Descending Philadelphia TRACON
Mon 07:46:22 AM 39.5333 -74.9667 270° West 286 329 8,100 -783 Descending Philadelphia TRACON
Mon 07:47:17 AM 39.5500 -75.0500 285° West 284 327 7,100 -1,043 Descending Philadelphia TRACON
Mon 07:48:17 AM 39.5667 -75.1500 282° West 285 328 6,100 -555 Descending Philadelphia TRACON
Mon 07:49:16 AM 39.5833 -75.2500 282° West 280 322 6,000 -48 Descending Philadelphia TRACON
Mon 07:50:22 AM 39.6167 -75.3500 293° West 260 299 6,000  Level Philadelphia TRACON
Mon 07:51:23 AM 39.6333 -75.4333 285° West 237 273 6,000 -333 Level Philadelphia TRACON
Mon 07:52:28 AM 39.6500 -75.5167 285° West 214 246 5,300 -905 Descending Philadelphia TRACON
Mon 07:53:29 AM 39.6833 -75.5833 303° West 209 241 4,100 -645 Descending Philadelphia TRACON
Mon 07:54:29 AM 39.7167 -75.6500 303° West 220 253 4,000 -379 Descending Philadelphia TRACON
Mon 07:56:23 AM 39.8000 -75.5667 38° Northeast 203 234 3,000 -345 Descending Philadelphia TRACON
Mon 07:57:23 AM 39.8167 -75.5000 72° East 183 211 3,000 -150 Level Philadelphia TRACON
Mon 07:58:23 AM 39.8333 -75.4333 72° East 184 212 2,700 -667 Descending Philadelphia TRACON
Mon 07:59:29 AM 39.8500 -75.3667 72° East 176 203 1,600 -900 Descending Philadelphia TRACON
Mon 08:00:23 AM 39.8500 -75.3333 90° East 112 129 900 -700 Descending Philadelphia TRACON
Mon 08:01:29 AM 39.8667 -75.2833 67° East 123 142 200 -636 Descending Philadelphia TRACON

Login

Don't have an account? Register now (free) for customized features, flight alerts, and more!